Time;durP1;ratioP1;P1;durP2;ratioP2;P2;SDS_P1;SDS_P2;PMS_P1;PMS_P2;Temp;Humidity;BMP_temperature;BMP_pressure;BME280_temperature;BME280_humidity;BME280_pressure;Samples;Min_cycle;Max_cycle;Signal;HPM_P1;HPM_P2
2023/06/07 00:02:59;;;;;;;6.07;2.60;;;;;;;;;;6356678;22;20535;-61
2023/06/07 00:06:03;;;;;;;6.23;2.80;;;;;;;;;;6347851;28;20486;-64
2023/06/07 00:09:05;;;;;;;3.13;2.83;;;;;;;;;;6336733;27;20925;-61
2023/06/07 00:12:09;;;;;;;4.33;3.27;;;;;;;;;;6347891;28;20436;-61
2023/06/07 00:15:12;;;;;;;3.60;3.27;;;;;;;;;;6348087;28;20544;-61
2023/06/07 00:18:16;;;;;;;3.07;2.47;;;;;;;;;;6338924;28;21023;-61
2023/06/07 00:21:20;;;;;;;3.07;2.43;;;;;;;;;;6343991;28;21060;-62
2023/06/07 00:24:23;;;;;;;3.60;3.10;;;;;;;;;;6345526;28;20440;-62
2023/06/07 00:27:26;;;;;;;3.37;2.97;;;;;;;;;;6344490;28;20792;-63
2023/06/07 00:30:29;;;;;;;2.90;2.70;;;;;;;;;;6336334;28;20441;-61
2023/06/07 00:33:33;;;;;;;3.53;2.93;;;;;;;;;;6347038;28;20459;-61
2023/06/07 00:36:36;;;;;;;3.27;2.97;;;;;;;;;;6346416;28;20945;-62
2023/06/07 00:39:40;;;;;;;4.73;2.97;;;;;;;;;;6346505;28;20436;-63
2023/06/07 00:42:43;;;;;;;2.73;2.53;;;;;;;;;;6336092;28;20460;-61
2023/06/07 00:45:46;;;;;;;3.43;3.13;;;;;;;;;;6346350;28;20520;-61
2023/06/07 00:48:52;;;;;;;3.17;2.87;;;;;;;;;;6347210;28;20936;-61
2023/06/07 00:51:55;;;;;;;2.67;2.43;;;;;;;;;;6342312;28;20466;-62
2023/06/07 00:54:58;;;;;;;3.57;3.27;;;;;;;;;;6340755;28;20452;-62
2023/06/07 00:58:01;;;;;;;2.90;2.63;;;;;;;;;;6346781;28;20433;-61
2023/06/07 01:01:04;;;;;;;3.63;2.70;;;;;;;;;;6344873;28;20525;-62
2023/06/07 01:04:09;;;;;;;6.70;2.80;;;;;;;;;;6334164;28;20938;-62
2023/06/07 01:07:12;;;;;;;2.63;2.43;;;;;;;;;;6347504;28;21012;-62
2023/06/07 01:10:15;;;;;;;3.50;2.87;;;;;;;;;;6345453;28;20436;-61
2023/06/07 01:13:18;;;;;;;2.90;2.60;;;;;;;;;;6346967;28;20433;-61
2023/06/07 01:16:21;;;;;;;3.03;2.83;;;;;;;;;;6335675;28;20559;-62
2023/06/07 01:19:27;;;;;;;3.03;2.73;;;;;;;;;;6345943;28;20929;-63
2023/06/07 01:22:30;;;;;;;3.47;2.80;;;;;;;;;;6336297;28;20444;-61
2023/06/07 01:25:34;;;;;;;4.60;2.50;;;;;;;;;;6334053;28;20886;-62
2023/06/07 01:28:41;;;;;;;2.60;2.40;;;;;;;;;;6333443;28;20563;-62
2023/06/07 01:31:45;;;;;;;2.97;2.77;;;;;;;;;;6346344;28;20515;-62
2023/06/07 01:34:49;;;;;;;2.80;2.60;;;;;;;;;;6344557;28;20467;-62
2023/06/07 01:37:52;;;;;;;3.40;2.80;;;;;;;;;;6338512;28;20444;-65
2023/06/07 01:40:57;;;;;;;3.10;2.67;;;;;;;;;;6327249;28;20433;-63
2023/06/07 01:44:01;;;;;;;3.13;2.83;;;;;;;;;;6340977;28;20432;-62
2023/06/07 01:47:04;;;;;;;3.10;2.80;;;;;;;;;;6345749;28;20433;-62
2023/06/07 01:50:08;;;;;;;3.70;3.17;;;;;;;;;;6334878;28;20574;-63
2023/06/07 01:53:11;;;;;;;5.30;2.70;;;;;;;;;;6346305;28;20478;-63
2023/06/07 01:56:19;;;;;;;3.13;2.57;;;;;;;;;;6345603;28;20439;-63
2023/06/07 01:59:28;;;;;;;2.67;2.47;;;;;;;;;;6342904;28;20433;-63
2023/06/07 02:02:34;;;;;;;3.63;3.10;;;;;;;;;;6333530;28;20444;-63
2023/06/07 02:05:38;;;;;;;9.20;2.60;;;;;;;;;;6330685;28;20444;-62
2023/06/07 02:08:45;;;;;;;3.30;2.77;;;;;;;;;;6345279;28;20447;-62
2023/06/07 02:11:50;;;;;;;3.90;2.87;;;;;;;;;;6339868;28;20445;-62
2023/06/07 02:14:53;;;;;;;5.43;2.60;;;;;;;;;;6340992;28;20443;-62
2023/06/07 02:17:58;;;;;;;4.33;2.77;;;;;;;;;;6345272;28;21005;-62
2023/06/07 02:21:01;;;;;;;4.80;2.50;;;;;;;;;;6344964;28;20440;-62
2023/06/07 02:24:05;;;;;;;3.33;2.70;;;;;;;;;;6335245;27;20440;-61
2023/06/07 02:27:10;;;;;;;3.00;2.50;;;;;;;;;;6339366;28;20951;-61
2023/06/07 02:30:13;;;;;;;3.10;2.80;;;;;;;;;;6342351;28;20440;-61
2023/06/07 02:33:16;;;;;;;3.00;2.67;;;;;;;;;;6345759;28;20507;-61
2023/06/07 02:36:21;;;;;;;5.23;4.13;;;;;;;;;;6333722;28;20444;-60
2023/06/07 02:39:23;;;;;;;8.50;7.77;;;;;;;;;;6331978;28;20555;-62
2023/06/07 02:42:28;;;;;;;11.47;10.40;;;;;;;;;;6344889;28;20569;-61
2023/06/07 02:45:31;;;;;;;9.03;8.23;;;;;;;;;;6340001;27;20460;-62
2023/06/07 02:48:33;;;;;;;6.90;6.27;;;;;;;;;;6343609;27;20432;-61
2023/06/07 02:51:37;;;;;;;5.37;4.97;;;;;;;;;;6349056;28;20432;-60
2023/06/07 02:54:40;;;;;;;6.20;5.70;;;;;;;;;;6348964;28;20852;-61
2023/06/07 02:57:44;;;;;;;9.63;5.50;;;;;;;;;;6336260;28;20451;-62
2023/06/07 03:00:49;;;;;;;5.83;5.27;;;;;;;;;;6348164;28;20432;-61
2023/06/07 03:03:52;;;;;;;6.90;6.30;;;;;;;;;;6348975;28;20452;-62
2023/06/07 03:06:55;;;;;;;7.20;6.60;;;;;;;;;;6348842;28;20456;-62
2023/06/07 03:09:58;;;;;;;8.27;7.43;;;;;;;;;;6337818;28;20437;-62
2023/06/07 03:13:02;;;;;;;6.60;6.10;;;;;;;;;;6349021;28;20432;-62
2023/06/07 03:16:05;;;;;;;7.87;7.07;;;;;;;;;;6348002;28;20437;-61
2023/06/07 03:19:08;;;;;;;7.87;6.00;;;;;;;;;;6349799;28;20443;-62
2023/06/07 03:22:11;;;;;;;6.17;5.67;;;;;;;;;;6335278;28;20449;-62
2023/06/07 03:25:13;;;;;;;5.00;4.50;;;;;;;;;;6347208;28;20450;-61
2023/06/07 03:28:18;;;;;;;5.00;4.50;;;;;;;;;;6346805;28;20459;-60
2023/06/07 03:31:21;;;;;;;8.23;4.20;;;;;;;;;;6337488;28;20448;-62
2023/06/07 03:34:26;;;;;;;4.73;4.13;;;;;;;;;;6342210;28;20436;-62
2023/06/07 03:37:28;;;;;;;4.50;3.50;;;;;;;;;;6347961;28;20523;-62
2023/06/07 03:40:31;;;;;;;6.40;3.87;;;;;;;;;;6348158;28;20459;-65
2023/06/07 03:43:35;;;;;;;6.67;3.90;;;;;;;;;;6336364;28;20514;-65
2023/06/07 03:46:38;;;;;;;3.50;3.20;;;;;;;;;;6348296;28;20536;-65
2023/06/07 03:49:42;;;;;;;14.17;3.53;;;;;;;;;;6347108;28;20502;-67
2023/06/07 03:52:45;;;;;;;12.03;3.60;;;;;;;;;;6347163;28;20443;-65
2023/06/07 03:55:48;;;;;;;4.30;3.33;;;;;;;;;;6335359;28;20440;-66
2023/06/07 03:58:54;;;;;;;4.33;3.60;;;;;;;;;;6346239;27;20445;-66
2023/06/07 04:01:58;;;;;;;27.87;4.90;;;;;;;;;;6342429;27;20919;-67
2023/06/07 04:05:01;;;;;;;24.23;4.53;;;;;;;;;;6337418;28;20456;-68
2023/06/07 04:08:05;;;;;;;8.30;3.50;;;;;;;;;;6340360;27;20436;-68
2023/06/07 04:11:08;;;;;;;10.00;4.17;;;;;;;;;;6348385;28;20524;-69
2023/06/07 04:14:12;;;;;;;8.60;4.00;;;;;;;;;;6344721;28;20528;-69
2023/06/07 04:17:15;;;;;;;3.77;3.40;;;;;;;;;;6335751;28;20467;-70
2023/06/07 04:20:18;;;;;;;6.33;4.40;;;;;;;;;;6346395;28;20944;-69
2023/06/07 04:23:22;;;;;;;9.63;8.63;;;;;;;;;;6346430;28;20432;-69
2023/06/07 04:26:25;;;;;;;12.63;10.73;;;;;;;;;;6344876;28;20482;-68
2023/06/07 04:29:30;;;;;;;16.37;12.50;;;;;;;;;;6321200;28;20439;-71
2023/06/07 04:32:35;;;;;;;14.20;12.87;;;;;;;;;;6347224;28;20440;-70
2023/06/07 04:35:38;;;;;;;14.77;13.40;;;;;;;;;;6345145;28;20469;-71
2023/06/07 04:38:41;;;;;;;13.37;11.93;;;;;;;;;;6346258;28;20452;-71
2023/06/07 04:42:02;;;;;;;13.30;11.87;;;;;;;;;;6335354;28;20433;-70
2023/06/07 04:45:08;;;;;;;11.63;10.50;;;;;;;;;;6343152;28;20459;-72
2023/06/07 04:48:11;;;;;;;14.83;10.37;;;;;;;;;;6344816;28;20452;-70
2023/06/07 04:51:18;;;;;;;9.73;8.90;;;;;;;;;;6335643;28;20432;-67
2023/06/07 04:54:21;;;;;;;9.63;8.57;;;;;;;;;;6344599;27;20445;-67
2023/06/07 04:57:24;;;;;;;8.30;7.50;;;;;;;;;;6343376;28;20455;-73
2023/06/07 05:00:30;;;;;;;9.13;8.23;;;;;;;;;;6342649;28;20446;-72
2023/06/07 05:03:36;;;;;;;9.70;8.40;;;;;;;;;;6335832;28;20518;-73
2023/06/07 05:06:42;;;;;;;12.07;7.93;;;;;;;;;;6344908;28;20452;-72
2023/06/07 05:09:45;;;;;;;7.10;6.30;;;;;;;;;;6345353;27;20432;-73
2023/06/07 05:12:47;;;;;;;24.73;6.60;;;;;;;;;;6345608;28;20448;-62
2023/06/07 05:15:52;;;;;;;12.03;7.60;;;;;;;;;;6331461;28;20864;-63
2023/06/07 05:18:56;;;;;;;17.33;15.30;;;;;;;;;;6339869;28;20922;-62
2023/06/07 05:21:59;;;;;;;16.77;14.77;;;;;;;;;;6344288;28;20439;-64
2023/06/07 05:25:02;;;;;;;21.30;12.30;;;;;;;;;;6334535;28;20441;-64
2023/06/07 05:28:05;;;;;;;13.70;11.27;;;;;;;;;;6339456;28;20910;-64
2023/06/07 05:31:18;;;;;;;11.37;10.17;;;;;;;;;;6345869;28;20432;-64
2023/06/07 05:34:21;;;;;;;11.00;10.00;;;;;;;;;;6342587;28;20448;-62
2023/06/07 05:37:25;;;;;;;9.00;8.10;;;;;;;;;;6333666;28;20436;-62
2023/06/07 05:40:27;;;;;;;9.70;7.07;;;;;;;;;;6340053;28;20512;-63
2023/06/07 05:43:30;;;;;;;8.80;6.30;;;;;;;;;;6340834;28;20482;-62
2023/06/07 05:46:34;;;;;;;7.33;6.00;;;;;;;;;;6343553;28;20448;-62
2023/06/07 05:49:37;;;;;;;7.00;6.30;;;;;;;;;;6329839;28;20436;-62
2023/06/07 05:52:40;;;;;;;11.80;5.47;;;;;;;;;;6340950;27;20432;-62
2023/06/07 05:55:45;;;;;;;6.73;5.83;;;;;;;;;;6332872;28;20441;-63
2023/06/07 05:58:49;;;;;;;7.33;5.47;;;;;;;;;;6333898;28;21122;-65
2023/06/07 06:01:53;;;;;;;6.30;4.73;;;;;;;;;;6333317;27;20526;-67
2023/06/07 06:04:56;;;;;;;7.93;4.70;;;;;;;;;;6337251;28;20437;-66
2023/06/07 06:07:59;;;;;;;4.67;4.20;;;;;;;;;;6340288;28;20428;-67
2023/06/07 06:11:02;;;;;;;6.37;4.70;;;;;;;;;;6332275;28;20444;-67
2023/06/07 06:14:05;;;;;;;5.20;4.60;;;;;;;;;;6339201;28;20918;-66
2023/06/07 06:17:09;;;;;;;5.30;4.23;;;;;;;;;;6344734;28;20957;-66
2023/06/07 06:20:16;;;;;;;9.40;4.40;;;;;;;;;;6345118;27;20435;-65
2023/06/07 06:23:19;;;;;;;5.67;4.60;;;;;;;;;;6339090;28;20436;-65
2023/06/07 06:26:23;;;;;;;7.93;4.20;;;;;;;;;;6343862;28;20453;-67
2023/06/07 06:29:26;;;;;;;13.00;4.70;;;;;;;;;;6343699;28;20468;-66
2023/06/07 06:32:30;;;;;;;11.27;4.57;;;;;;;;;;6349290;28;20428;-65
2023/06/07 06:35:33;;;;;;;11.50;3.97;;;;;;;;;;6332280;28;20443;-66
2023/06/07 06:38:36;;;;;;;10.13;4.30;;;;;;;;;;6338699;28;20436;-67
2023/06/07 06:41:39;;;;;;;6.53;4.00;;;;;;;;;;6346160;28;20433;-66
2023/06/07 06:44:42;;;;;;;7.57;4.07;;;;;;;;;;6339552;28;20440;-66
2023/06/07 06:47:46;;;;;;;9.27;4.53;;;;;;;;;;6349310;28;20509;-67
2023/06/07 06:50:49;;;;;;;7.77;3.73;;;;;;;;;;6348908;28;20436;-66
2023/06/07 06:53:52;;;;;;;6.10;4.17;;;;;;;;;;6325198;28;20957;-67
2023/06/07 06:56:55;;;;;;;7.80;3.43;;;;;;;;;;6329035;27;20451;-67
2023/06/07 06:59:59;;;;;;;7.57;4.30;;;;;;;;;;6336381;28;20937;-67
2023/06/07 07:03:03;;;;;;;9.20;3.70;;;;;;;;;;6327465;28;20494;-67
2023/06/07 07:06:07;;;;;;;5.13;3.80;;;;;;;;;;6349970;28;20440;-67
2023/06/07 07:09:10;;;;;;;6.20;4.30;;;;;;;;;;6336608;27;20821;-67
2023/06/07 07:12:13;;;;;;;7.20;4.70;;;;;;;;;;6344322;28;20436;-66
2023/06/07 07:15:16;;;;;;;8.77;4.47;;;;;;;;;;6346596;28;20437;-66
2023/06/07 07:18:21;;;;;;;10.20;4.00;;;;;;;;;;6319564;28;20441;-65
2023/06/07 07:21:24;;;;;;;7.80;3.90;;;;;;;;;;6330700;28;20436;-66
2023/06/07 07:24:26;;;;;;;6.13;3.80;;;;;;;;;;6335987;27;20433;-66
2023/06/07 07:27:29;;;;;;;5.43;3.87;;;;;;;;;;6348876;28;20934;-67
2023/06/07 07:30:32;;;;;;;5.80;3.57;;;;;;;;;;6338922;28;20469;-66
2023/06/07 07:33:36;;;;;;;5.90;3.67;;;;;;;;;;6348190;27;20505;-66
2023/06/07 07:36:46;;;;;;;5.30;4.10;;;;;;;;;;6349506;27;22029;-66
2023/06/07 07:39:49;;;;;;;4.67;4.20;;;;;;;;;;6344042;28;20436;-66
2023/06/07 07:42:52;;;;;;;6.00;4.30;;;;;;;;;;6334177;28;22238;-66
2023/06/07 07:45:55;;;;;;;7.80;4.20;;;;;;;;;;6347755;28;20556;-65
2023/06/07 07:48:59;;;;;;;9.97;4.20;;;;;;;;;;6347186;28;20441;-69
2023/06/07 07:52:02;;;;;;;12.43;10.80;;;;;;;;;;6341316;28;20460;-66
2023/06/07 07:55:06;;;;;;;12.50;9.90;;;;;;;;;;6330245;28;20985;-69
2023/06/07 07:58:10;;;;;;;37.27;34.77;;;;;;;;;;6343632;28;20443;-65
2023/06/07 08:01:13;;;;;;;33.47;30.90;;;;;;;;;;6347292;28;20467;-67
2023/06/07 08:04:17;;;;;;;48.10;45.07;;;;;;;;;;6336325;28;20930;-67
2023/06/07 08:07:20;;;;;;;60.97;56.90;;;;;;;;;;6347751;28;20501;-69
2023/06/07 08:10:24;;;;;;;59.37;55.57;;;;;;;;;;6347876;28;20806;-69
2023/06/07 08:13:28;;;;;;;52.43;49.20;;;;;;;;;;6348542;28;20436;-68
2023/06/07 08:16:31;;;;;;;51.33;47.93;;;;;;;;;;6334604;28;20589;-68
2023/06/07 08:19:35;;;;;;;47.80;44.83;;;;;;;;;;6348016;28;20575;-64
2023/06/07 08:22:38;;;;;;;44.70;41.73;;;;;;;;;;6343507;28;20444;-66
2023/06/07 08:25:41;;;;;;;39.20;36.50;;;;;;;;;;6334061;28;20425;-64
2023/06/07 08:28:44;;;;;;;29.80;27.80;;;;;;;;;;6325683;28;20436;-63
2023/06/07 08:31:47;;;;;;;25.93;24.13;;;;;;;;;;6344284;28;20436;-63
2023/06/07 08:34:52;;;;;;;21.20;19.50;;;;;;;;;;6347291;28;20848;-62
2023/06/07 08:37:55;;;;;;;19.60;18.20;;;;;;;;;;6340640;28;20938;-68
2023/06/07 08:40:58;;;;;;;17.53;16.40;;;;;;;;;;6342097;28;20541;-64
2023/06/07 08:44:01;;;;;;;16.13;14.77;;;;;;;;;;6343043;27;20794;-64
2023/06/07 08:47:05;;;;;;;14.17;13.03;;;;;;;;;;6347909;28;20436;-65
2023/06/07 08:50:12;;;;;;;12.27;11.27;;;;;;;;;;6330075;28;20454;-64
2023/06/07 08:53:15;;;;;;;11.03;10.10;;;;;;;;;;6334058;27;20440;-63
2023/06/07 08:56:19;;;;;;;11.40;10.40;;;;;;;;;;6346844;28;20939;-63
2023/06/07 08:59:24;;;;;;;10.53;9.53;;;;;;;;;;6345694;28;20531;-63
2023/06/07 09:02:27;;;;;;;12.80;10.50;;;;;;;;;;6332670;28;20532;-66
2023/06/07 09:05:31;;;;;;;15.10;9.40;;;;;;;;;;6347731;28;20529;-64
2023/06/07 09:08:34;;;;;;;9.93;8.93;;;;;;;;;;6345998;28;20901;-64
2023/06/07 09:11:36;;;;;;;11.60;8.10;;;;;;;;;;6343169;28;20436;-64
2023/06/07 09:14:39;;;;;;;10.03;9.03;;;;;;;;;;6332995;28;20444;-64
2023/06/07 09:17:52;;;;;;;7.13;6.43;;;;;;;;;;6339213;28;20511;-65
2023/06/07 09:20:57;;;;;;;7.30;6.70;;;;;;;;;;6346035;28;20850;-63
2023/06/07 09:24:00;;;;;;;6.77;6.10;;;;;;;;;;6335438;28;20438;-65
2023/06/07 09:27:04;;;;;;;6.87;5.70;;;;;;;;;;6345649;28;20511;-65
2023/06/07 09:30:07;;;;;;;5.90;4.73;;;;;;;;;;6329827;28;20454;-70
2023/06/07 09:33:25;;;;;;;5.20;4.70;;;;;;;;;;6341031;28;20444;-68
2023/06/07 09:36:30;;;;;;;6.13;4.90;;;;;;;;;;6323167;28;20432;-69
2023/06/07 09:39:35;;;;;;;5.53;4.57;;;;;;;;;;6345223;28;20517;-69
2023/06/07 09:42:38;;;;;;;5.00;4.63;;;;;;;;;;6343271;28;20433;-68
2023/06/07 09:45:52;;;;;;;8.00;5.40;;;;;;;;;;6345373;28;20492;-68
2023/06/07 09:48:55;;;;;;;8.07;5.53;;;;;;;;;;6336603;28;20449;-67
2023/06/07 09:51:59;;;;;;;7.30;4.83;;;;;;;;;;6344338;28;20941;-68
2023/06/07 09:55:03;;;;;;;5.60;5.10;;;;;;;;;;6347937;27;20500;-68
2023/06/07 09:58:17;;;;;;;9.90;5.53;;;;;;;;;;6340481;28;20439;-68
2023/06/07 10:01:34;;;;;;;6.53;5.93;;;;;;;;;;6350487;28;20447;-68
2023/06/07 10:04:39;;;;;;;5.77;5.17;;;;;;;;;;6348501;28;20567;-66
2023/06/07 10:07:45;;;;;;;5.20;4.80;;;;;;;;;;6346590;28;20444;-67
2023/06/07 10:10:51;;;;;;;4.83;4.27;;;;;;;;;;6340395;28;20436;-67
2023/06/07 10:13:54;;;;;;;7.80;4.90;;;;;;;;;;6345780;28;20448;-66
2023/06/07 10:17:01;;;;;;;7.70;4.93;;;;;;;;;;6346901;28;20440;-67
2023/06/07 10:20:04;;;;;;;7.60;4.50;;;;;;;;;;6345654;28;20452;-72
2023/06/07 10:23:11;;;;;;;7.00;4.53;;;;;;;;;;6342365;28;20570;-71
2023/06/07 10:26:20;;;;;;;11.90;5.00;;;;;;;;;;6347512;28;20458;-72
2023/06/07 10:29:27;;;;;;;8.47;4.80;;;;;;;;;;6347495;28;20527;-71
2023/06/07 10:32:31;;;;;;;9.90;5.03;;;;;;;;;;6336301;28;20433;-72
2023/06/07 10:35:35;;;;;;;10.27;5.27;;;;;;;;;;6345312;28;20444;-66
2023/06/07 10:38:41;;;;;;;11.70;5.33;;;;;;;;;;6349308;28;20432;-62
2023/06/07 10:41:44;;;;;;;13.30;5.90;;;;;;;;;;6350571;28;20470;-63
2023/06/07 10:44:47;;;;;;;8.00;5.20;;;;;;;;;;6336788;28;20441;-63
2023/06/07 10:47:51;;;;;;;11.20;4.73;;;;;;;;;;6347812;28;20444;-62
2023/06/07 10:50:54;;;;;;;9.33;4.53;;;;;;;;;;6335685;28;20448;-62
2023/06/07 10:53:58;;;;;;;8.50;4.87;;;;;;;;;;6344437;27;20443;-65
2023/06/07 10:57:02;;;;;;;5.17;4.50;;;;;;;;;;6341107;28;20432;-63
2023/06/07 11:00:26;;;;;;;6.03;4.50;;;;;;;;;;6349083;28;20432;-66
2023/06/07 11:03:39;;;;;;;5.77;4.50;;;;;;;;;;6346940;28;20436;-61
2023/06/07 11:07:11;;;;;;;4.47;4.07;;;;;;;;;;6338429;28;20475;-63
2023/06/07 11:10:34;;;;;;;6.60;4.43;;;;;;;;;;6347005;28;20809;-63
2023/06/07 11:13:56;;;;;;;4.30;4.00;;;;;;;;;;6330893;28;20433;-61
2023/06/07 11:16:59;;;;;;;5.60;3.93;;;;;;;;;;6342360;28;20449;-63
2023/06/07 11:20:05;;;;;;;8.20;4.17;;;;;;;;;;6343749;28;20440;-62
2023/06/07 11:23:19;;;;;;;4.83;4.37;;;;;;;;;;6337773;28;20973;-62
2023/06/07 11:26:23;;;;;;;7.60;4.90;;;;;;;;;;6348932;28;20437;-61
2023/06/07 11:29:26;;;;;;;4.83;4.43;;;;;;;;;;6336454;27;20585;-63
2023/06/07 11:32:37;;;;;;;5.13;4.50;;;;;;;;;;6344290;28;20436;-65
2023/06/07 11:35:41;;;;;;;8.07;4.50;;;;;;;;;;6342865;28;20939;-61
2023/06/07 11:38:48;;;;;;;6.63;4.37;;;;;;;;;;6347954;28;20459;-63
2023/06/07 11:41:53;;;;;;;9.60;4.60;;;;;;;;;;6327026;28;20438;-61
2023/06/07 11:44:56;;;;;;;10.87;4.60;;;;;;;;;;6348473;28;20516;-61
2023/06/07 11:48:01;;;;;;;8.07;4.13;;;;;;;;;;6345047;28;20440;-62
2023/06/07 11:51:05;;;;;;;4.83;4.10;;;;;;;;;;6341915;28;20440;-65
2023/06/07 11:54:08;;;;;;;4.20;3.80;;;;;;;;;;6340110;28;20941;-67
2023/06/07 11:57:13;;;;;;;6.80;4.20;;;;;;;;;;6344301;28;20524;-68
2023/06/07 12:00:18;;;;;;;8.30;4.03;;;;;;;;;;6347015;28;20447;-69
2023/06/07 12:03:21;;;;;;;7.77;5.00;;;;;;;;;;6336415;27;20437;-65
2023/06/07 12:06:25;;;;;;;6.70;4.10;;;;;;;;;;6346129;28;20462;-69
2023/06/07 12:09:28;;;;;;;4.80;4.33;;;;;;;;;;6346622;28;20585;-67
2023/06/07 12:12:33;;;;;;;5.27;4.60;;;;;;;;;;6348764;28;20450;-70
2023/06/07 12:15:35;;;;;;;5.73;5.20;;;;;;;;;;6335479;28;20444;-68
2023/06/07 12:18:39;;;;;;;7.57;4.87;;;;;;;;;;6344940;27;20428;-67
2023/06/07 12:21:42;;;;;;;5.93;4.90;;;;;;;;;;6347528;28;20444;-67
2023/06/07 12:24:44;;;;;;;8.97;4.67;;;;;;;;;;6347679;28;20494;-67
2023/06/07 12:27:49;;;;;;;4.80;3.60;;;;;;;;;;6334804;27;20441;-69
2023/06/07 12:30:52;;;;;;;5.73;4.50;;;;;;;;;;6343324;28;20445;-69
2023/06/07 12:33:55;;;;;;;5.00;4.50;;;;;;;;;;6346180;28;20448;-73
2023/06/07 12:36:58;;;;;;;8.67;4.33;;;;;;;;;;6337468;28;20428;-65
2023/06/07 12:40:01;;;;;;;6.53;4.37;;;;;;;;;;6344938;28;20444;-66
2023/06/07 12:43:06;;;;;;;5.37;4.20;;;;;;;;;;6347933;28;20455;-66
2023/06/07 12:46:09;;;;;;;5.10;4.60;;;;;;;;;;6341803;28;20518;-65
2023/06/07 12:49:12;;;;;;;4.70;4.20;;;;;;;;;;6334494;28;20539;-69
2023/06/07 12:52:14;;;;;;;5.53;4.43;;;;;;;;;;6346412;28;20578;-68
2023/06/07 12:55:17;;;;;;;4.50;4.10;;;;;;;;;;6340768;28;20428;-67
2023/06/07 12:58:22;;;;;;;10.07;4.70;;;;;;;;;;6346731;28;20428;-69
2023/06/07 13:01:25;;;;;;;8.73;3.93;;;;;;;;;;6332467;27;20452;-67
2023/06/07 13:04:28;;;;;;;6.30;4.13;;;;;;;;;;6344702;28;20432;-67
2023/06/07 13:07:33;;;;;;;6.30;4.10;;;;;;;;;;6345897;28;20440;-67
2023/06/07 13:10:36;;;;;;;5.13;4.30;;;;;;;;;;6339114;28;20459;-67
2023/06/07 13:13:40;;;;;;;4.57;4.10;;;;;;;;;;6340684;28;20790;-66
2023/06/07 13:16:43;;;;;;;5.10;4.10;;;;;;;;;;6342644;28;20440;-67
2023/06/07 13:19:47;;;;;;;4.93;4.53;;;;;;;;;;6335732;28;20424;-67
2023/06/07 13:22:49;;;;;;;5.10;4.70;;;;;;;;;;6337673;27;20782;-68
2023/06/07 13:25:52;;;;;;;5.77;4.60;;;;;;;;;;6347286;28;20436;-68
2023/06/07 13:28:57;;;;;;;9.30;5.20;;;;;;;;;;6346694;28;20459;-68
2023/06/07 13:32:00;;;;;;;5.03;4.53;;;;;;;;;;6346585;28;20513;-68
2023/06/07 13:35:03;;;;;;;6.80;4.60;;;;;;;;;;6334494;28;20437;-67
2023/06/07 13:38:06;;;;;;;4.73;4.30;;;;;;;;;;6339200;28;20482;-67
2023/06/07 13:41:09;;;;;;;8.10;4.47;;;;;;;;;;6335809;28;20436;-67
2023/06/07 13:44:14;;;;;;;7.13;5.10;;;;;;;;;;6347170;27;20447;-68
2023/06/07 13:47:20;;;;;;;5.90;5.40;;;;;;;;;;6331521;27;20432;-67
2023/06/07 13:50:27;;;;;;;6.80;4.83;;;;;;;;;;6344966;28;20444;-67
2023/06/07 13:53:31;;;;;;;6.03;4.47;;;;;;;;;;6344671;28;20517;-67
2023/06/07 13:56:34;;;;;;;7.00;4.40;;;;;;;;;;6336287;28;20432;-66
2023/06/07 13:59:38;;;;;;;6.53;4.23;;;;;;;;;;6343497;28;20448;-67
2023/06/07 14:02:42;;;;;;;8.03;6.03;;;;;;;;;;6336554;28;20440;-67
2023/06/07 14:05:46;;;;;;;17.90;8.47;;;;;;;;;;6344447;28;20540;-67
2023/06/07 14:08:48;;;;;;;5.33;4.83;;;;;;;;;;6330052;28;20523;-64
2023/06/07 14:11:51;;;;;;;12.70;5.60;;;;;;;;;;6339513;27;20440;-66
2023/06/07 14:14:55;;;;;;;13.43;7.63;;;;;;;;;;6321571;28;20433;-63
2023/06/07 14:17:58;;;;;;;9.80;6.53;;;;;;;;;;6341331;28;20432;-65
2023/06/07 14:21:02;;;;;;;9.50;7.80;;;;;;;;;;6335293;28;20442;-64
2023/06/07 14:24:05;;;;;;;10.33;7.20;;;;;;;;;;6346653;28;20435;-63
2023/06/07 14:27:08;;;;;;;8.60;7.80;;;;;;;;;;6346740;28;20523;-63
2023/06/07 14:30:13;;;;;;;11.07;7.80;;;;;;;;;;6341972;28;20447;-63
2023/06/07 14:33:16;;;;;;;8.10;7.23;;;;;;;;;;6340695;28;20501;-64
2023/06/07 14:36:19;;;;;;;13.77;7.87;;;;;;;;;;6346438;28;20439;-64
2023/06/07 14:39:22;;;;;;;9.43;6.83;;;;;;;;;;6346536;28;20443;-64
2023/06/07 14:42:24;;;;;;;7.97;6.90;;;;;;;;;;6338001;27;20551;-64
2023/06/07 14:45:29;;;;;;;8.47;6.90;;;;;;;;;;6350707;28;20543;-65
2023/06/07 14:48:32;;;;;;;8.33;7.53;;;;;;;;;;6350739;28;20451;-63
2023/06/07 14:51:35;;;;;;;9.70;8.07;;;;;;;;;;6350857;28;20437;-64
2023/06/07 14:54:38;;;;;;;10.10;9.10;;;;;;;;;;6338943;28;20823;-64
2023/06/07 14:57:40;;;;;;;10.50;8.93;;;;;;;;;;6350685;28;20436;-64
2023/06/07 15:00:45;;;;;;;10.27;9.30;;;;;;;;;;6349725;28;20577;-64
2023/06/07 15:03:48;;;;;;;9.93;9.03;;;;;;;;;;6350589;28;20417;-64
2023/06/07 15:06:50;;;;;;;9.27;8.10;;;;;;;;;;6339380;28;20437;-64
2023/06/07 15:09:53;;;;;;;9.60;8.20;;;;;;;;;;6350268;28;20441;-64
2023/06/07 15:12:58;;;;;;;9.97;8.83;;;;;;;;;;6350440;28;20455;-64
2023/06/07 15:16:02;;;;;;;9.50;8.77;;;;;;;;;;6344528;28;20791;-64
2023/06/07 15:19:05;;;;;;;8.97;8.07;;;;;;;;;;6346282;28;20477;-64
2023/06/07 15:22:08;;;;;;;9.50;8.70;;;;;;;;;;6350235;28;20448;-64
2023/06/07 15:25:10;;;;;;;9.00;8.10;;;;;;;;;;6349939;28;20425;-64
2023/06/07 15:28:13;;;;;;;8.80;8.07;;;;;;;;;;6338635;28;20432;-65
2023/06/07 15:31:17;;;;;;;8.33;7.73;;;;;;;;;;6349902;28;21084;-64
2023/06/07 15:34:22;;;;;;;10.17;8.60;;;;;;;;;;6349825;28;20432;-64
2023/06/07 15:37:25;;;;;;;9.07;8.27;;;;;;;;;;6349784;28;20443;-64
2023/06/07 15:40:28;;;;;;;9.33;8.53;;;;;;;;;;6338512;28;20487;-65
2023/06/07 15:43:31;;;;;;;9.40;8.60;;;;;;;;;;6349664;28;20578;-64
2023/06/07 15:46:35;;;;;;;8.90;8.00;;;;;;;;;;6349726;28;20957;-66
2023/06/07 15:49:40;;;;;;;8.93;8.13;;;;;;;;;;6345211;28;20535;-64
2023/06/07 15:52:43;;;;;;;9.90;8.30;;;;;;;;;;6343608;27;20433;-64
2023/06/07 15:55:46;;;;;;;9.03;8.23;;;;;;;;;;6349572;28;20456;-64
2023/06/07 15:58:49;;;;;;;9.17;8.23;;;;;;;;;;6349318;28;20432;-63
2023/06/07 16:01:57;;;;;;;9.47;8.43;;;;;;;;;;6338354;27;20614;-66
2023/06/07 16:05:00;;;;;;;8.43;7.63;;;;;;;;;;6349434;28;20768;-65
2023/06/07 16:08:03;;;;;;;10.40;8.17;;;;;;;;;;6349597;28;20463;-65
2023/06/07 16:11:14;;;;;;;8.50;7.80;;;;;;;;;;6349128;28;20797;-64
2023/06/07 16:14:17;;;;;;;8.20;6.83;;;;;;;;;;6338422;28;20555;-64
2023/06/07 16:17:22;;;;;;;7.90;7.30;;;;;;;;;;6349262;28;20432;-64
2023/06/07 16:20:25;;;;;;;9.17;8.17;;;;;;;;;;6348938;28;20515;-64
2023/06/07 16:23:27;;;;;;;7.80;7.00;;;;;;;;;;6348889;28;20475;-64
2023/06/07 16:26:31;;;;;;;8.50;7.60;;;;;;;;;;6337714;28;20529;-64
2023/06/07 16:29:34;;;;;;;8.03;7.33;;;;;;;;;;6348918;28;20799;-65
2023/06/07 16:32:39;;;;;;;8.27;7.53;;;;;;;;;;6348973;28;20432;-64
2023/06/07 16:35:44;;;;;;;7.47;6.77;;;;;;;;;;6339933;28;20946;-66
2023/06/07 16:38:47;;;;;;;7.83;7.07;;;;;;;;;;6348208;28;20436;-65
2023/06/07 16:41:50;;;;;;;7.17;6.57;;;;;;;;;;6348737;28;20805;-65
2023/06/07 16:44:53;;;;;;;7.03;6.43;;;;;;;;;;6348710;28;20436;-65
2023/06/07 16:47:57;;;;;;;7.57;6.90;;;;;;;;;;6337971;28;20973;-65
2023/06/07 16:51:00;;;;;;;7.30;6.63;;;;;;;;;;6348439;28;20822;-65
2023/06/07 16:54:03;;;;;;;7.30;6.70;;;;;;;;;;6348337;28;20436;-65
2023/06/07 16:57:06;;;;;;;7.10;6.50;;;;;;;;;;6348351;28;20436;-65
2023/06/07 17:00:10;;;;;;;7.57;6.87;;;;;;;;;;6336805;27;20450;-65
2023/06/07 17:03:14;;;;;;;8.10;6.90;;;;;;;;;;6327336;28;20437;-65
2023/06/07 17:06:17;;;;;;;7.53;6.87;;;;;;;;;;6322041;28;20432;-65
2023/06/07 17:09:20;;;;;;;7.13;6.53;;;;;;;;;;6317561;28;20453;-65
2023/06/07 17:12:22;;;;;;;7.80;7.10;;;;;;;;;;6340032;28;20440;-64
2023/06/07 17:15:26;;;;;;;7.30;6.70;;;;;;;;;;6347888;28;20486;-64
2023/06/07 17:18:30;;;;;;;7.13;6.43;;;;;;;;;;6348053;28;20523;-63
2023/06/07 17:21:33;;;;;;;7.17;6.60;;;;;;;;;;6336533;28;20447;-65
2023/06/07 17:24:36;;;;;;;7.50;6.80;;;;;;;;;;6346278;28;20429;-66
2023/06/07 17:27:39;;;;;;;7.50;6.80;;;;;;;;;;6344434;28;20444;-64
2023/06/07 17:30:42;;;;;;;6.60;5.90;;;;;;;;;;6346389;28;20973;-64
2023/06/07 17:33:46;;;;;;;6.63;5.50;;;;;;;;;;6334474;28;20516;-65
2023/06/07 17:36:49;;;;;;;6.60;5.60;;;;;;;;;;6344490;28;20575;-64
2023/06/07 17:39:51;;;;;;;6.73;6.03;;;;;;;;;;6342369;28;20789;-66
2023/06/07 17:42:56;;;;;;;7.37;6.73;;;;;;;;;;6340214;28;20509;-65
2023/06/07 17:45:59;;;;;;;7.30;5.97;;;;;;;;;;6336281;28;20495;-64
2023/06/07 17:49:04;;;;;;;7.50;5.90;;;;;;;;;;6346639;28;20505;-65
2023/06/07 17:52:07;;;;;;;7.63;6.93;;;;;;;;;;6345552;28;20480;-65
2023/06/07 17:55:23;;;;;;;6.57;5.97;;;;;;;;;;6337894;28;20433;-66
2023/06/07 17:58:26;;;;;;;5.93;5.40;;;;;;;;;;6347133;28;20439;-64
2023/06/07 18:01:29;;;;;;;5.73;5.20;;;;;;;;;;6332802;28;20437;-65
2023/06/07 18:04:33;;;;;;;6.03;5.40;;;;;;;;;;6346550;28;20472;-63
2023/06/07 18:07:36;;;;;;;6.13;5.53;;;;;;;;;;6337191;28;20444;-63
2023/06/07 18:10:39;;;;;;;5.73;5.10;;;;;;;;;;6346596;28;20558;-65
2023/06/07 18:13:43;;;;;;;5.33;4.80;;;;;;;;;;6346267;28;20443;-65
2023/06/07 18:16:45;;;;;;;5.90;5.30;;;;;;;;;;6350087;27;20440;-65
2023/06/07 18:19:50;;;;;;;6.00;5.50;;;;;;;;;;6341236;28;20493;-65